KUIN/UIN METAR and TAF weather

Enter ICAO airport designator
Station Type Date Time Source
KUIN METAR 2019/08/22 04:54 UTC NOAA

KUIN 220454Z AUTO 34004KT 10SM -RA BKN100 OVC120 22/21 A3001 RMK AO2 RAB21 SLP158 P0000 T02220206 TSNO


Station Type Date Time Source
KUIN Decoded METAR 2019/08/22 04:54 UTC NOAA

Station name not available
Aug 22, 2019 - 12:54 AM EDT / 2019.08.22 0454 UTC
Wind: from the NNW (340 degrees) at 5 MPH (4 KT):0
Visibility: 10 mile(s):0
Sky conditions: overcast
Weather: light rain
Precipitation last hour: A trace
Temperature: 72.0 F (22.2 C)
Dew Point: 69.1 F (20.6 C)
Relative Humidity: 90%
Pressure (altimeter): 30.01 in. Hg (1016 hPa)
ob: KUIN 220454Z AUTO 34004KT 10SM -RA BKN100 OVC120 22/21 A3001 RMK AO2 RAB21 SLP158 P0000 T02220206 TSNO
cycle: 5

Station Type Date Time Source
KUIN TAF 2019/08/21 18:40 UTC NOAA

TAF KUIN 211737Z 2118/2218 02008KT 6SM -SHRA VCTS OVC050CB
FM212000 06007KT P6SM SCT040 BKN250
FM220400 04005KT 6SM -SHRA VCTS OVC045CB
FM221000 02005KT P6SM OVC025
FM221300 02005KT P6SM OVC035

Example: see airport list